Orlando, Florida
Traffic Map
Current Weather Conditions
Orlando, Florida
Clear
Clear
79°
Feels Like: 83°
Wind Chill: 79° Ceiling: Unl
Heat Index: 83° Visibility: 10mi
Dew Point: 77° Wind: 0mph
Humidity: 94% Direction: ° ()
Pressure: 30.01in Gusts: 0mph
Raw Report DataKORL 240753Z AUTO 00000KT 10SM CLR 26/25 A3001 RMK AO2 SLP163 T02610250
Traffic Incident Summary
Active as of:
Severity:
Category:
InformationThere was an issue retrieving the traffic information for this location. Please try a different location or try again shortly.
Advertisements
Track Severe Weather on mobile